Terminal Aerodrome Forecast
Issued by NWS Glasgow, MT

Current Version | Previous Version | Text Only | Print | Product List | Glossary On
Versions: 1 2 3 4 5 6 7 8 9 10 11 12 13
000
FTUS45 KGGW 132320
TAFGGW
TAF
KGGW 132320Z 1400/1424 29007KT P6SM SCT120
     FM140700 31014KT P6SM BKN030
     FM141300 32011KT P6SM BKN020
     FM141900 30009KT P6SM BKN035
     FM142000 30009KT P6SM SCT030=

USA.gov is the U.S. government's official web portal to all federal, state and local government web resources and services.